Time;durP1;ratioP1;P1;durP2;ratioP2;P2;SDS_P1;SDS_P2;PMS_P1;PMS_P2;Temp;Humidity;BMP_temperature;BMP_pressure;BME280_temperature;BME280_humidity;BME280_pressure;Samples;Min_cycle;Max_cycle;Signal;HPM_P1;HPM_P2
2023/03/21 00:02:34;;;;;;;8.88;7.75;;;23.40;71.60;;;;;;6071386;28;91088;-68
2023/03/21 00:05:40;;;;;;;8.52;7.63;;;23.30;71.60;;;;;;6064542;28;89278;-69
2023/03/21 00:08:43;;;;;;;8.18;7.38;;;23.40;71.60;;;;;;6076538;28;89285;-68
2023/03/21 00:11:45;;;;;;;8.52;7.72;;;23.30;71.50;;;;;;6067981;28;89364;-68
2023/03/21 00:14:47;;;;;;;8.77;7.90;;;23.40;71.60;;;;;;6064765;28;89117;-68
2023/03/21 00:17:52;;;;;;;8.80;7.90;;;23.30;71.60;;;;;;6073320;28;89568;-68
2023/03/21 00:20:58;;;;;;;8.85;8.02;;;23.30;71.60;;;;;;6072667;28;89258;-69
2023/03/21 00:24:01;;;;;;;8.48;7.68;;;23.30;71.60;;;;;;6072416;28;88700;-68
2023/03/21 00:27:03;;;;;;;8.70;7.80;;;23.30;72.70;;;;;;6087797;28;87997;-68
2023/03/21 00:30:06;;;;;;;8.32;7.53;;;23.30;71.80;;;;;;6063377;28;89567;-67
2023/03/21 00:33:09;;;;;;;8.63;7.80;;;23.30;71.70;;;;;;6063439;28;89951;-67
2023/03/21 00:36:12;;;;;;;8.48;7.68;;;23.30;71.80;;;;;;6062718;28;88344;-68
2023/03/21 00:39:14;;;;;;;8.60;7.80;;;23.30;71.80;;;;;;6070401;28;89128;-68
2023/03/21 00:42:17;;;;;;;8.80;8.00;;;23.30;71.90;;;;;;6071947;28;89037;-68
2023/03/21 00:45:20;;;;;;;8.82;7.93;;;23.20;71.80;;;;;;6069616;28;89309;-68
2023/03/21 00:48:24;;;;;;;8.82;7.93;;;23.30;71.90;;;;;;6063449;28;89084;-68
2023/03/21 00:51:26;;;;;;;8.45;7.43;;;23.30;71.80;;;;;;6064034;28;89364;-68
2023/03/21 00:54:28;;;;;;;8.52;7.72;;;23.20;71.70;;;;;;6071496;28;88833;-68
2023/03/21 00:57:30;;;;;;;8.95;8.05;;;23.20;71.80;;;;;;6067642;28;89162;-68
2023/03/21 01:00:35;;;;;;;9.18;8.27;;;23.20;71.90;;;;;;6071278;28;89019;-68
2023/03/21 01:03:49;;;;;;;8.52;7.72;;;23.20;71.80;;;;;;6064115;28;88870;-68
2023/03/21 01:06:51;;;;;;;9.20;8.27;;;23.20;71.70;;;;;;6064062;28;88222;-68
2023/03/21 01:09:53;;;;;;;8.68;7.88;;;23.20;71.70;;;;;;6064509;28;88992;-68
2023/03/21 01:12:55;;;;;;;9.07;8.18;;;23.30;71.80;;;;;;6066114;28;88167;-68
2023/03/21 01:15:58;;;;;;;9.52;8.50;;;23.20;71.80;;;;;;6074167;28;89172;-68
2023/03/21 01:19:02;;;;;;;9.15;8.18;;;23.20;71.80;;;;;;6064405;28;89126;-68
2023/03/21 01:22:04;;;;;;;9.07;8.10;;;23.20;71.80;;;;;;6063898;28;89081;-68
2023/03/21 01:25:07;;;;;;;8.45;7.65;;;23.20;71.80;;;;;;6065413;28;88479;-68
2023/03/21 01:28:09;;;;;;;8.75;7.95;;;23.20;71.80;;;;;;6065114;28;89063;-68
2023/03/21 01:31:13;;;;;;;9.27;8.38;;;23.20;71.80;;;;;;6062125;28;87987;-67
2023/03/21 01:34:16;;;;;;;9.00;8.10;;;23.10;71.70;;;;;;6062136;28;90098;-68
2023/03/21 01:37:18;;;;;;;8.93;8.10;;;23.20;71.80;;;;;;6062628;28;88026;-67
2023/03/21 01:40:23;;;;;;;8.40;7.60;;;23.20;71.80;;;;;;6065718;28;89025;-67
2023/03/21 01:43:28;;;;;;;8.80;7.90;;;23.10;71.60;;;;;;6073280;28;89212;-68
2023/03/21 01:46:38;;;;;;;8.25;7.45;;;23.10;71.60;;;;;;6065701;28;89130;-68
2023/03/21 01:49:45;;;;;;;9.00;8.10;;;23.10;71.50;;;;;;6059831;28;89339;-68
2023/03/21 01:52:48;;;;;;;10.10;8.38;;;23.10;71.60;;;;;;6068372;28;89059;-68
2023/03/21 01:55:51;;;;;;;8.80;8.00;;;23.10;71.60;;;;;;6062742;28;88463;-68
2023/03/21 01:58:56;;;;;;;8.32;7.53;;;23.10;71.60;;;;;;6064087;28;89326;-67
2023/03/21 02:02:05;;;;;;;8.30;7.50;;;23.10;71.60;;;;;;6050446;28;87154;-67
2023/03/21 02:05:09;;;;;;;7.90;7.20;;;23.00;71.50;;;;;;6060816;28;89718;-68
2023/03/21 02:08:12;;;;;;;8.30;7.50;;;23.10;71.70;;;;;;6062337;28;89192;-68
2023/03/21 02:11:14;;;;;;;7.90;7.20;;;23.10;71.70;;;;;;6070567;28;87970;-68
2023/03/21 02:14:18;;;;;;;8.55;7.75;;;23.10;71.70;;;;;;6072131;28;89684;-67
2023/03/21 02:17:26;;;;;;;8.00;7.20;;;23.10;71.60;;;;;;6068485;28;89178;-68
2023/03/21 02:21:03;;;;;;;8.30;7.50;;;23.10;71.60;;;;;;6070848;28;88935;-68
2023/03/21 02:24:27;;;;;;;8.52;7.70;;;23.10;71.70;;;;;;6075995;28;89168;-68
2023/03/21 02:27:32;;;;;;;7.70;7.00;;;23.10;71.60;;;;;;6062238;28;87352;-68
2023/03/21 02:30:49;;;;;;;8.15;7.35;;;23.00;71.60;;;;;;6068622;28;89129;-67
2023/03/21 02:34:37;;;;;;;8.40;7.60;;;23.00;71.50;;;;;;6071068;28;88169;-68
2023/03/21 02:37:45;;;;;;;8.10;7.30;;;23.00;71.60;;;;;;6001481;29;88224;-68
2023/03/21 02:40:53;;;;;;;7.95;7.18;;;23.00;71.60;;;;;;6006978;29;89261;-68
2023/03/21 02:44:01;;;;;;;7.72;7.03;;;23.00;71.60;;;;;;6055981;28;89469;-68
2023/03/21 02:47:09;;;;;;;7.70;7.00;;;23.00;71.70;;;;;;6066479;28;89243;-68
2023/03/21 02:50:15;;;;;;;7.40;6.70;;;23.00;71.60;;;;;;6073040;28;89244;-68
2023/03/21 02:53:22;;;;;;;8.65;7.80;;;23.00;71.50;;;;;;6065141;28;87977;-68
2023/03/21 02:56:24;;;;;;;7.30;6.60;;;23.00;71.50;;;;;;6061539;28;89089;-68
2023/03/21 02:59:28;;;;;;;7.55;6.85;;;23.00;71.50;;;;;;6062493;28;88367;-68
2023/03/21 03:02:32;;;;;;;7.78;7.07;;;23.00;71.40;;;;;;6063749;28;89442;-68
2023/03/21 03:05:39;;;;;;;7.47;6.78;;;23.00;71.50;;;;;;6059136;28;89192;-68
2023/03/21 03:08:56;;;;;;;7.80;7.07;;;23.00;71.50;;;;;;6060130;28;90085;-68
2023/03/21 03:12:05;;;;;;;6.95;6.30;;;23.00;71.50;;;;;;6062421;28;89124;-69
2023/03/21 03:15:17;;;;;;;7.47;6.78;;;23.00;71.50;;;;;;6062533;28;89057;-68
2023/03/21 03:18:27;;;;;;;7.25;6.55;;;23.00;71.50;;;;;;6071683;28;89069;-68
2023/03/21 03:21:32;;;;;;;6.85;6.20;;;23.00;71.60;;;;;;6065905;28;88971;-68
2023/03/21 03:24:42;;;;;;;7.15;6.55;;;23.00;71.50;;;;;;6061342;28;89119;-68
2023/03/21 03:27:46;;;;;;;7.15;6.45;;;23.00;71.50;;;;;;6063457;28;89004;-68
2023/03/21 03:30:50;;;;;;;7.63;6.75;;;23.00;71.50;;;;;;6065439;28;87334;-67
2023/03/21 03:33:56;;;;;;;7.03;6.32;;;23.00;71.50;;;;;;6074268;28;89194;-68
2023/03/21 03:37:03;;;;;;;6.72;6.13;;;22.90;71.40;;;;;;6073529;28;88360;-68
2023/03/21 03:40:12;;;;;;;6.15;5.65;;;22.90;71.50;;;;;;6058817;28;89988;-68
2023/03/21 03:43:19;;;;;;;6.70;6.10;;;22.90;71.50;;;;;;6059619;28;89083;-68
2023/03/21 03:46:28;;;;;;;6.88;6.28;;;22.90;71.40;;;;;;6060651;28;89768;-68
2023/03/21 03:49:36;;;;;;;8.38;6.35;;;22.80;71.30;;;;;;6066837;28;89075;-67
2023/03/21 03:52:43;;;;;;;6.32;5.72;;;22.90;71.30;;;;;;6059120;28;89079;-68
2023/03/21 03:55:47;;;;;;;6.63;6.03;;;22.90;71.30;;;;;;6049217;28;89169;-68
2023/03/21 03:58:49;;;;;;;7.38;6.63;;;22.90;71.50;;;;;;6069226;28;88969;-68
2023/03/21 04:01:51;;;;;;;6.53;5.93;;;22.90;71.40;;;;;;6068891;28;88277;-68
2023/03/21 04:04:56;;;;;;;6.50;5.90;;;22.90;71.40;;;;;;6060216;28;89196;-68
2023/03/21 04:07:58;;;;;;;6.22;5.63;;;22.90;71.50;;;;;;6069461;28;89114;-68
2023/03/21 04:11:03;;;;;;;6.10;5.60;;;22.80;71.30;;;;;;6060653;28;90018;-68
2023/03/21 04:14:05;;;;;;;6.32;5.72;;;22.80;71.30;;;;;;6069202;28;89103;-68
2023/03/21 04:17:07;;;;;;;6.18;5.60;;;22.80;71.30;;;;;;6059188;28;87921;-68
2023/03/21 04:20:10;;;;;;;6.30;5.70;;;22.80;71.30;;;;;;6067000;28;88999;-68
2023/03/21 04:23:13;;;;;;;6.20;5.60;;;22.80;71.30;;;;;;6078106;28;89104;-68
2023/03/21 04:26:16;;;;;;;5.60;5.10;;;22.80;71.30;;;;;;6070613;28;89154;-67
2023/03/21 04:29:19;;;;;;;6.10;5.50;;;22.80;71.30;;;;;;6070184;28;89478;-67
2023/03/21 04:32:24;;;;;;;6.03;5.43;;;22.80;71.30;;;;;;6071758;28;88595;-67
2023/03/21 04:35:27;;;;;;;5.78;5.28;;;22.80;71.30;;;;;;6065683;28;89355;-68
2023/03/21 04:38:29;;;;;;;5.88;5.38;;;22.80;71.20;;;;;;6050946;28;89591;-67
2023/03/21 04:41:33;;;;;;;6.22;5.50;;;22.80;71.00;;;;;;6062198;28;90032;-67
2023/03/21 04:44:35;;;;;;;5.50;5.00;;;22.80;70.90;;;;;;6059149;28;88313;-68
2023/03/21 04:47:37;;;;;;;5.70;5.20;;;22.80;71.00;;;;;;6060297;28;89346;-68
2023/03/21 04:50:39;;;;;;;5.47;4.97;;;22.80;70.80;;;;;;6062906;28;89038;-67
2023/03/21 04:53:43;;;;;;;5.57;5.07;;;22.90;70.80;;;;;;6083411;28;89347;-67
2023/03/21 04:56:47;;;;;;;5.13;4.65;;;22.90;70.80;;;;;;6067184;28;89147;-68
2023/03/21 04:59:49;;;;;;;5.00;4.60;;;22.90;70.80;;;;;;6063745;28;88067;-67
2023/03/21 05:02:51;;;;;;;5.18;4.68;;;22.90;70.70;;;;;;6064168;28;88357;-68
2023/03/21 05:05:53;;;;;;;5.40;4.90;;;22.90;70.70;;;;;;6063394;28;89111;-68
2023/03/21 05:08:58;;;;;;;5.28;4.78;;;22.90;70.70;;;;;;6062307;28;88747;-67
2023/03/21 05:12:02;;;;;;;4.50;4.10;;;22.90;70.60;;;;;;6063843;28;89982;-68
2023/03/21 05:15:05;;;;;;;5.05;4.55;;;23.00;70.60;;;;;;6056473;28;89063;-67
2023/03/21 05:18:10;;;;;;;5.07;4.60;;;23.00;71.50;;;;;;6064293;28;89077;-68
2023/03/21 05:21:16;;;;;;;5.20;4.70;;;23.00;70.60;;;;;;6066908;28;88997;-68
2023/03/21 05:24:21;;;;;;;4.85;4.45;;;23.00;70.60;;;;;;6071832;28;88134;-67
2023/03/21 05:27:36;;;;;;;4.50;4.10;;;23.00;70.60;;;;;;6073046;28;87899;-67
2023/03/21 05:30:38;;;;;;;4.40;4.00;;;23.00;70.60;;;;;;6077186;28;89104;-68
2023/03/21 05:33:40;;;;;;;4.60;4.20;;;23.00;70.60;;;;;;6062713;28;88393;-68
2023/03/21 05:36:42;;;;;;;4.70;4.30;;;23.00;70.60;;;;;;6063635;28;89088;-68
2023/03/21 05:39:44;;;;;;;4.63;4.22;;;23.10;70.60;;;;;;6063181;28;89157;-68
2023/03/21 05:42:48;;;;;;;4.43;4.05;;;23.00;70.60;;;;;;6062699;28;90122;-68
2023/03/21 05:45:50;;;;;;;4.97;4.47;;;23.00;70.60;;;;;;6049979;28;87995;-68
2023/03/21 05:48:52;;;;;;;4.25;3.85;;;23.10;70.60;;;;;;6068951;28;89126;-67
2023/03/21 05:51:54;;;;;;;4.25;3.85;;;23.10;70.60;;;;;;6061449;28;89328;-68
2023/03/21 05:54:56;;;;;;;4.65;4.25;;;23.00;70.50;;;;;;6062840;28;89175;-68
2023/03/21 05:57:59;;;;;;;4.18;3.78;;;23.10;70.50;;;;;;6066584;28;89310;-68
2023/03/21 06:01:01;;;;;;;4.65;4.25;;;23.10;70.50;;;;;;6055721;28;89165;-66
2023/03/21 06:04:04;;;;;;;3.90;3.60;;;23.10;70.60;;;;;;6066207;28;88231;-69
2023/03/21 06:07:06;;;;;;;4.88;4.05;;;23.10;70.60;;;;;;6066457;28;89170;-69
2023/03/21 06:10:09;;;;;;;4.25;3.85;;;23.20;70.80;;;;;;6073505;28;89195;-68
2023/03/21 06:13:12;;;;;;;4.15;3.75;;;23.10;71.00;;;;;;6062216;28;88942;-68
2023/03/21 06:16:14;;;;;;;4.15;3.75;;;23.20;71.00;;;;;;6060367;28;89033;-70
2023/03/21 06:19:17;;;;;;;4.15;3.75;;;23.20;70.90;;;;;;6062128;28;89174;-70
2023/03/21 06:22:19;;;;;;;4.25;3.85;;;23.30;71.00;;;;;;6070041;28;89053;-69
2023/03/21 06:25:21;;;;;;;5.75;4.28;;;23.30;71.00;;;;;;6063143;28;87977;-70
2023/03/21 06:28:25;;;;;;;3.83;3.53;;;23.30;71.00;;;;;;6064511;28;89369;-69
2023/03/21 06:31:27;;;;;;;3.72;3.42;;;23.30;71.00;;;;;;6059757;28;89065;-68
2023/03/21 06:34:29;;;;;;;3.90;3.50;;;23.40;71.10;;;;;;6062295;28;88401;-69
2023/03/21 06:37:31;;;;;;;5.50;3.75;;;23.30;70.90;;;;;;6059943;28;89181;-68
2023/03/21 06:40:33;;;;;;;3.63;3.33;;;23.40;70.80;;;;;;6061865;28;89034;-68
2023/03/21 06:43:37;;;;;;;3.72;3.33;;;23.40;70.80;;;;;;6062644;28;90441;-68
2023/03/21 06:46:39;;;;;;;4.35;3.33;;;23.40;70.70;;;;;;6075688;28;89112;-68
2023/03/21 06:49:42;;;;;;;3.72;3.35;;;23.40;70.70;;;;;;6071886;28;89152;-68
2023/03/21 06:52:44;;;;;;;4.35;3.67;;;23.40;70.60;;;;;;6070473;28;88761;-68
2023/03/21 06:55:49;;;;;;;3.60;3.30;;;23.40;70.70;;;;;;6066017;28;89051;-68
2023/03/21 06:58:52;;;;;;;3.15;2.88;;;23.40;70.70;;;;;;6063568;28;89339;-68
2023/03/21 07:01:55;;;;;;;3.35;3.05;;;23.40;70.70;;;;;;6060966;28;87921;-68
2023/03/21 07:04:57;;;;;;;3.80;3.20;;;23.40;70.30;;;;;;6061327;28;88406;-67
2023/03/21 07:08:00;;;;;;;3.15;2.90;;;23.40;69.40;;;;;;6062196;28;89193;-68
2023/03/21 07:11:02;;;;;;;2.88;2.60;;;23.40;69.30;;;;;;6066206;28;89162;-68
2023/03/21 07:14:05;;;;;;;2.90;2.60;;;23.40;68.90;;;;;;6060183;28;90071;-68
2023/03/21 07:17:07;;;;;;;3.00;2.70;;;23.40;68.80;;;;;;6060097;28;88002;-68
2023/03/21 07:20:11;;;;;;;2.63;2.42;;;23.40;68.70;;;;;;6060879;28;89050;-68
2023/03/21 07:23:13;;;;;;;3.05;2.75;;;23.50;68.60;;;;;;6071300;28;88773;-68
2023/03/21 07:26:17;;;;;;;3.42;2.53;;;23.40;68.40;;;;;;6062923;28;88062;-68
2023/03/21 07:29:22;;;;;;;2.90;2.60;;;23.50;68.40;;;;;;6064836;28;89274;-67
2023/03/21 07:32:28;;;;;;;2.95;2.60;;;23.40;68.10;;;;;;6069311;28;88020;-68
2023/03/21 07:35:30;;;;;;;2.50;2.30;;;23.50;68.20;;;;;;6065629;28;88398;-68
2023/03/21 07:38:32;;;;;;;2.90;2.35;;;23.50;68.00;;;;;;6060107;28;89197;-68
2023/03/21 07:41:35;;;;;;;2.47;2.20;;;23.50;67.90;;;;;;6065209;28;88971;-67
2023/03/21 07:44:38;;;;;;;3.05;2.40;;;23.50;67.80;;;;;;6058201;28;90171;-68
2023/03/21 07:47:40;;;;;;;2.35;2.03;;;23.50;67.70;;;;;;6061612;28;89085;-68
2023/03/21 07:50:42;;;;;;;2.90;2.22;;;23.50;67.60;;;;;;6060412;28;89153;-68
2023/03/21 07:53:47;;;;;;;2.30;2.05;;;23.60;67.60;;;;;;6060663;28;89047;-68
2023/03/21 07:56:49;;;;;;;2.90;2.38;;;23.60;67.90;;;;;;6059770;28;89438;-68
2023/03/21 07:59:52;;;;;;;2.47;2.28;;;23.50;67.90;;;;;;6057528;28;89094;-67
2023/03/21 08:02:57;;;;;;;2.40;2.20;;;23.50;68.10;;;;;;6059321;28;89083;-68
2023/03/21 08:06:00;;;;;;;2.65;2.20;;;23.60;68.30;;;;;;6058688;28;88829;-67
2023/03/21 08:09:03;;;;;;;2.17;1.98;;;23.60;68.30;;;;;;6058913;28;88843;-67
2023/03/21 08:12:07;;;;;;;2.72;2.13;;;23.60;68.40;;;;;;6072301;28;89242;-67
2023/03/21 08:15:11;;;;;;;2.42;2.22;;;23.60;68.50;;;;;;6056622;28;90198;-67
2023/03/21 08:18:13;;;;;;;2.38;2.17;;;23.60;68.50;;;;;;6059832;28;88794;-68
2023/03/21 08:21:15;;;;;;;2.45;2.20;;;23.60;68.60;;;;;;6066034;28;88819;-68
2023/03/21 08:24:17;;;;;;;2.75;2.35;;;23.60;68.70;;;;;;6068028;28;89080;-68
2023/03/21 08:31:28;;;;;;;2.95;1.90;;;23.70;69.00;;;;;;6065013;28;87937;-67
2023/03/21 08:34:30;;;;;;;2.20;2.00;;;23.60;69.10;;;;;;6066368;28;89119;-67
2023/03/21 08:37:33;;;;;;;2.47;2.05;;;23.70;69.30;;;;;;6065040;28;88064;-67
2023/03/21 08:40:36;;;;;;;4.00;2.33;;;23.70;69.40;;;;;;6070904;28;89735;-68
2023/03/21 08:43:38;;;;;;;3.67;2.53;;;23.70;69.50;;;;;;6064504;28;89002;-67
2023/03/21 08:46:41;;;;;;;3.08;2.63;;;23.70;69.60;;;;;;6065521;28;90092;-68
2023/03/21 08:49:44;;;;;;;2.88;2.30;;;23.70;69.60;;;;;;6064606;28;89017;-68
2023/03/21 08:52:46;;;;;;;3.58;2.50;;;23.70;69.60;;;;;;6063370;28;89278;-68
2023/03/21 08:55:49;;;;;;;3.10;2.47;;;23.70;69.60;;;;;;6057276;28;89125;-68
2023/03/21 08:58:51;;;;;;;3.13;2.50;;;23.70;69.60;;;;;;6064830;28;89371;-68
2023/03/21 09:01:54;;;;;;;3.55;2.30;;;23.70;69.80;;;;;;6063089;28;89099;-68
2023/03/21 09:04:57;;;;;;;2.40;2.20;;;23.80;69.80;;;;;;6064994;28;87999;-68
2023/03/21 09:08:00;;;;;;;2.30;2.10;;;23.70;69.80;;;;;;6052420;28;88504;-68
2023/03/21 09:11:02;;;;;;;2.47;2.13;;;23.70;69.80;;;;;;6061983;28;89155;-67
2023/03/21 09:14:05;;;;;;;2.65;2.20;;;23.70;69.90;;;;;;6065543;28;92025;-68
2023/03/21 09:17:09;;;;;;;2.35;2.15;;;23.80;70.10;;;;;;6065508;28;90096;-68
2023/03/21 09:20:17;;;;;;;2.80;2.00;;;23.70;70.00;;;;;;6059546;28;89536;-68
2023/03/21 09:23:20;;;;;;;2.58;2.25;;;23.70;70.00;;;;;;6060401;28;89052;-68
2023/03/21 09:26:23;;;;;;;2.65;2.30;;;23.70;70.10;;;;;;6062983;28;89101;-68
2023/03/21 09:29:25;;;;;;;2.53;2.33;;;23.80;70.20;;;;;;6061942;28;89198;-68
2023/03/21 09:32:28;;;;;;;2.33;2.13;;;23.80;70.30;;;;;;6063252;28;89309;-68
2023/03/21 09:35:30;;;;;;;3.30;2.08;;;23.70;70.10;;;;;;6063144;28;88115;-67
2023/03/21 09:38:35;;;;;;;2.10;2.00;;;23.70;70.10;;;;;;6062245;28;88719;-68
2023/03/21 09:41:55;;;;;;;2.40;2.20;;;23.80;70.00;;;;;;6064454;28;89063;-68
2023/03/21 09:45:07;;;;;;;2.40;2.10;;;23.80;70.00;;;;;;6065694;28;88020;-69
2023/03/21 09:48:28;;;;;;;3.63;2.50;;;23.80;69.80;;;;;;6063482;28;90364;-69
2023/03/21 09:51:36;;;;;;;2.60;2.17;;;23.80;69.80;;;;;;6058488;28;89160;-69
2023/03/21 09:54:41;;;;;;;2.88;2.10;;;23.80;69.50;;;;;;6065885;28;89089;-69
2023/03/21 09:57:47;;;;;;;2.83;2.10;;;23.80;69.80;;;;;;6061951;28;88126;-70
2023/03/21 10:00:52;;;;;;;2.35;2.00;;;23.80;69.80;;;;;;6061152;28;89092;-70
2023/03/21 10:03:58;;;;;;;2.53;2.00;;;23.90;69.90;;;;;;6062861;28;87874;-70
2023/03/21 10:07:02;;;;;;;2.72;2.00;;;23.90;70.10;;;;;;6060939;28;88031;-69
2023/03/21 10:10:06;;;;;;;3.03;2.20;;;23.90;70.10;;;;;;6061405;28;87011;-69
2023/03/21 10:13:15;;;;;;;2.10;1.90;;;23.90;70.10;;;;;;6058905;28;89174;-69
2023/03/21 10:16:22;;;;;;;1.80;1.70;;;23.80;70.00;;;;;;6060146;28;89440;-69
2023/03/21 10:19:28;;;;;;;2.25;1.90;;;23.80;70.20;;;;;;6060103;28;90385;-70
2023/03/21 10:22:30;;;;;;;2.95;2.75;;;23.80;70.60;;;;;;6061589;28;89129;-69
2023/03/21 10:25:35;;;;;;;2.53;2.30;;;23.80;73.80;;;;;;6067075;28;89465;-70
2023/03/21 10:28:40;;;;;;;2.88;2.58;;;23.80;71.80;;;;;;6052213;28;89047;-69
2023/03/21 10:31:44;;;;;;;2.30;2.10;;;23.90;71.70;;;;;;6056510;28;89011;-69
2023/03/21 10:34:52;;;;;;;3.40;2.50;;;23.90;71.70;;;;;;6053329;28;88035;-69
2023/03/21 10:37:54;;;;;;;2.35;1.98;;;23.90;71.60;;;;;;6062453;28;89125;-69
2023/03/21 10:40:56;;;;;;;2.30;2.05;;;23.90;71.50;;;;;;6062581;28;88117;-69
2023/03/21 10:44:13;;;;;;;2.20;2.00;;;23.80;71.40;;;;;;6068992;28;89384;-69
2023/03/21 10:47:20;;;;;;;2.20;2.00;;;23.80;71.30;;;;;;6058805;28;89111;-70
2023/03/21 10:50:29;;;;;;;2.35;1.95;;;23.80;71.30;;;;;;6060924;28;89939;-69
2023/03/21 10:53:36;;;;;;;2.95;2.22;;;23.80;71.20;;;;;;6068340;28;87960;-69
2023/03/21 10:56:43;;;;;;;2.20;2.00;;;23.80;71.10;;;;;;6053013;28;89303;-69
2023/03/21 10:59:52;;;;;;;2.70;1.75;;;23.80;71.10;;;;;;6072354;28;88809;-69
2023/03/21 11:02:55;;;;;;;1.83;1.70;;;23.80;71.10;;;;;;6062041;28;89081;-69
2023/03/21 11:06:08;;;;;;;2.38;1.80;;;23.90;71.10;;;;;;6059115;28;89366;-69
2023/03/21 11:09:15;;;;;;;1.88;1.70;;;23.80;71.00;;;;;;6063283;28;90675;-69
2023/03/21 11:12:19;;;;;;;1.70;1.60;;;23.90;70.90;;;;;;6056946;28;88456;-69
2023/03/21 11:15:29;;;;;;;1.92;1.70;;;23.90;70.90;;;;;;6065506;28;88885;-69
2023/03/21 11:18:33;;;;;;;3.17;2.25;;;23.90;71.50;;;;;;6061215;28;89105;-70
2023/03/21 11:21:38;;;;;;;2.05;1.83;;;23.90;72.00;;;;;;6067175;28;89977;-69
2023/03/21 11:24:40;;;;;;;2.35;1.70;;;23.90;72.30;;;;;;6060507;28;89392;-69
2023/03/21 11:27:48;;;;;;;2.72;1.80;;;23.90;72.50;;;;;;6058694;28;89296;-69
2023/03/21 11:30:54;;;;;;;5.65;2.58;;;23.90;73.00;;;;;;6054858;28;89126;-68
2023/03/21 11:33:58;;;;;;;4.30;1.92;;;23.90;73.10;;;;;;6062722;28;89199;-69
2023/03/21 11:37:03;;;;;;;3.30;1.70;;;23.90;73.50;;;;;;6085157;28;88323;-69
2023/03/21 11:40:20;;;;;;;2.08;1.77;;;23.90;73.90;;;;;;6069782;28;89096;-68
2023/03/21 11:43:28;;;;;;;2.45;1.75;;;23.90;74.30;;;;;;6056746;28;88365;-69
2023/03/21 11:46:32;;;;;;;1.88;1.30;;;23.90;74.50;;;;;;6061773;28;89047;-69
2023/03/21 11:49:34;;;;;;;1.98;1.70;;;23.90;74.70;;;;;;6062247;28;88203;-70
2023/03/21 11:52:43;;;;;;;1.90;1.70;;;23.90;74.40;;;;;;6065322;28;90083;-69
2023/03/21 11:55:55;;;;;;;1.98;1.73;;;23.90;74.50;;;;;;6067891;28;89072;-69
2023/03/21 11:59:34;;;;;;;2.17;1.80;;;23.90;74.70;;;;;;6061050;28;89157;-69
2023/03/21 12:03:16;;;;;;;5.90;1.95;;;23.90;74.90;;;;;;6058825;28;89080;-68
2023/03/21 12:06:26;;;;;;;2.33;1.67;;;23.90;74.20;;;;;;6066276;28;89080;-69
2023/03/21 12:09:37;;;;;;;1.95;1.73;;;23.90;73.80;;;;;;6066967;28;89748;-69
2023/03/21 12:12:46;;;;;;;2.25;1.60;;;24.00;73.90;;;;;;6063007;28;89422;-69
2023/03/21 12:15:58;;;;;;;3.90;1.70;;;23.90;73.80;;;;;;6066226;28;88425;-68
2023/03/21 12:19:19;;;;;;;2.42;1.60;;;23.90;73.50;;;;;;6064219;28;89536;-69
2023/03/21 12:22:30;;;;;;;2.53;1.60;;;23.90;73.50;;;;;;6058259;28;89210;-69
2023/03/21 12:25:39;;;;;;;2.95;1.80;;;23.90;73.30;;;;;;6065935;28;90046;-69
2023/03/21 12:28:55;;;;;;;1.83;1.60;;;23.90;73.30;;;;;;6065427;28;88282;-69
2023/03/21 12:32:06;;;;;;;1.73;1.50;;;23.90;73.60;;;;;;6064861;28;89259;-69
2023/03/21 12:35:21;;;;;;;2.25;1.60;;;23.90;73.70;;;;;;6070044;28;89541;-69
2023/03/21 12:38:28;;;;;;;2.42;1.70;;;23.90;73.80;;;;;;6071195;28;89196;-68
2023/03/21 12:41:38;;;;;;;1.95;1.40;;;23.90;73.70;;;;;;6067154;28;89097;-69
2023/03/21 12:44:44;;;;;;;1.70;1.48;;;23.90;73.50;;;;;;6068848;28;89196;-69
2023/03/21 12:47:51;;;;;;;1.85;1.58;;;23.90;73.20;;;;;;6064972;28;88253;-68
2023/03/21 12:50:56;;;;;;;2.33;1.45;;;23.90;73.30;;;;;;6066779;28;89257;-69
2023/03/21 12:54:05;;;;;;;1.85;1.50;;;23.90;73.50;;;;;;6061178;28;88873;-68
2023/03/21 12:57:14;;;;;;;1.70;1.60;;;24.00;73.50;;;;;;6063109;28;90135;-68
2023/03/21 13:00:21;;;;;;;1.63;1.52;;;23.90;72.90;;;;;;6064358;28;89108;-68
2023/03/21 13:03:29;;;;;;;1.75;1.30;;;23.90;73.10;;;;;;6069316;28;89577;-69
2023/03/21 13:06:31;;;;;;;2.00;1.80;;;23.90;73.20;;;;;;6062922;28;89258;-69
2023/03/21 13:09:36;;;;;;;2.13;1.50;;;23.90;73.10;;;;;;6072175;28;89401;-69
2023/03/21 13:12:48;;;;;;;2.05;1.70;;;23.90;72.70;;;;;;6059330;28;89065;-69
2023/03/21 13:15:57;;;;;;;1.85;1.60;;;23.90;72.80;;;;;;6073205;28;88301;-69
2023/03/21 13:19:05;;;;;;;1.90;1.65;;;23.90;73.00;;;;;;6065705;28;88339;-69
2023/03/21 13:22:11;;;;;;;1.95;1.50;;;23.90;73.00;;;;;;6067106;28;89452;-69
2023/03/21 13:25:19;;;;;;;1.60;1.40;;;23.90;73.10;;;;;;6056409;28;89153;-69
2023/03/21 13:28:27;;;;;;;1.70;1.38;;;23.90;73.00;;;;;;6061394;28;90201;-69
2023/03/21 13:31:30;;;;;;;1.63;1.42;;;23.90;72.90;;;;;;6065367;28;89328;-69
2023/03/21 13:34:33;;;;;;;1.40;1.30;;;24.00;73.00;;;;;;6057960;28;89104;-69
2023/03/21 13:37:38;;;;;;;2.75;1.50;;;23.90;73.00;;;;;;6058849;28;88968;-69
2023/03/21 13:40:44;;;;;;;1.40;1.30;;;24.00;73.20;;;;;;6064320;28;89315;-69
2023/03/21 13:43:54;;;;;;;1.77;1.40;;;24.00;73.10;;;;;;6060319;28;89145;-69
2023/03/21 13:47:01;;;;;;;2.00;1.50;;;23.90;73.10;;;;;;6060327;28;88909;-69
2023/03/21 13:50:26;;;;;;;1.50;1.40;;;23.90;73.30;;;;;;6068038;28;88515;-69
2023/03/21 13:53:31;;;;;;;1.95;1.50;;;23.90;73.30;;;;;;6064008;28;89090;-69
2023/03/21 13:56:50;;;;;;;1.60;1.48;;;23.90;73.10;;;;;;6066896;28;87940;-69
2023/03/21 14:00:22;;;;;;;2.20;1.30;;;23.90;73.00;;;;;;6063357;28;90252;-68
2023/03/21 14:03:24;;;;;;;1.45;1.30;;;24.00;73.20;;;;;;6063929;28;89130;-69
2023/03/21 14:06:32;;;;;;;1.50;1.40;;;23.90;73.00;;;;;;6063746;28;87995;-69
2023/03/21 14:09:39;;;;;;;1.48;1.38;;;23.90;72.90;;;;;;6066435;28;89099;-69
2023/03/21 14:12:43;;;;;;;1.45;1.30;;;23.90;72.80;;;;;;6060044;28;87987;-69
2023/03/21 14:15:50;;;;;;;1.65;1.50;;;23.90;72.70;;;;;;6063111;28;89052;-69
2023/03/21 14:18:56;;;;;;;2.55;1.38;;;23.90;72.80;;;;;;6062655;28;89115;-68
2023/03/21 14:21:59;;;;;;;1.30;1.20;;;24.00;72.60;;;;;;6063282;28;88357;-69
2023/03/21 14:25:02;;;;;;;1.45;1.30;;;23.90;72.50;;;;;;6068605;28;90730;-69
2023/03/21 14:28:08;;;;;;;1.40;1.30;;;23.90;72.70;;;;;;6052273;28;89057;-69
2023/03/21 14:31:16;;;;;;;2.10;1.55;;;24.00;72.70;;;;;;6049346;28;90133;-69
2023/03/21 14:34:18;;;;;;;1.30;1.20;;;23.90;72.50;;;;;;6068215;28;89180;-69
2023/03/21 14:37:33;;;;;;;1.65;1.27;;;23.90;72.30;;;;;;6061332;28;89037;-69
2023/03/21 14:40:35;;;;;;;1.63;1.50;;;23.90;72.20;;;;;;6059914;28;89321;-69
2023/03/21 14:43:37;;;;;;;1.95;1.55;;;23.90;72.30;;;;;;6061857;28;88296;-70
2023/03/21 14:46:41;;;;;;;1.48;1.30;;;23.90;72.30;;;;;;6057642;28;89138;-70
2023/03/21 14:49:43;;;;;;;1.30;1.20;;;23.90;72.30;;;;;;6059456;28;89627;-69
2023/03/21 14:52:46;;;;;;;1.40;1.30;;;23.90;72.30;;;;;;6061806;28;88333;-69
2023/03/21 14:55:53;;;;;;;1.50;1.40;;;23.90;72.40;;;;;;6060275;28;89050;-69
2023/03/21 14:58:56;;;;;;;3.05;1.73;;;23.90;72.40;;;;;;6073737;28;89148;-69
2023/03/21 15:02:02;;;;;;;1.70;1.45;;;23.90;72.40;;;;;;6061482;28;90505;-69
2023/03/21 15:05:11;;;;;;;2.63;1.38;;;23.90;72.30;;;;;;6072610;28;87039;-68
2023/03/21 15:08:16;;;;;;;1.30;1.20;;;23.90;72.30;;;;;;6050710;28;89367;-69
2023/03/21 15:11:18;;;;;;;1.48;1.20;;;23.90;72.30;;;;;;6063550;28;89004;-70
2023/03/21 15:14:25;;;;;;;1.73;1.30;;;23.90;72.20;;;;;;6069209;28;89335;-70
2023/03/21 15:17:30;;;;;;;4.20;2.35;;;23.90;73.10;;;;;;6055160;28;89035;-69
2023/03/21 15:20:34;;;;;;;1.27;1.17;;;23.90;72.30;;;;;;6055362;28;89173;-69
2023/03/21 15:23:40;;;;;;;1.50;1.40;;;23.80;72.20;;;;;;6061195;28;89378;-69
2023/03/21 15:26:45;;;;;;;1.38;1.23;;;23.90;72.20;;;;;;6057608;28;89458;-69
2023/03/21 15:29:50;;;;;;;1.38;1.20;;;23.90;72.10;;;;;;6056161;28;89572;-69
2023/03/21 15:32:53;;;;;;;1.33;1.23;;;23.90;72.00;;;;;;6054422;28;89995;-69
2023/03/21 15:35:58;;;;;;;1.45;1.10;;;23.90;71.90;;;;;;6061697;28;88016;-68
2023/03/21 15:39:02;;;;;;;2.00;1.70;;;23.90;71.80;;;;;;6057785;28;89193;-68
2023/03/21 15:42:06;;;;;;;1.40;1.30;;;23.90;71.80;;;;;;6052110;28;89125;-67
2023/03/21 15:45:16;;;;;;;1.30;1.20;;;23.90;71.80;;;;;;6059243;28;89168;-68
2023/03/21 15:48:26;;;;;;;1.42;1.33;;;23.90;71.80;;;;;;6062003;28;89185;-68
2023/03/21 15:51:28;;;;;;;1.40;1.30;;;23.90;71.80;;;;;;6063650;28;90366;-67
2023/03/21 15:54:31;;;;;;;1.42;1.20;;;23.90;71.60;;;;;;6064151;28;88537;-68
2023/03/21 15:57:36;;;;;;;1.30;1.20;;;23.90;71.60;;;;;;6058093;28;88862;-68
2023/03/21 16:00:44;;;;;;;1.45;1.35;;;23.90;71.60;;;;;;6057873;28;87742;-68
2023/03/21 16:03:49;;;;;;;1.50;1.40;;;23.90;71.60;;;;;;6060987;28;90451;-68
2023/03/21 16:06:52;;;;;;;1.38;1.27;;;23.90;71.60;;;;;;6059504;28;89191;-68
2023/03/21 16:09:59;;;;;;;1.52;1.33;;;23.80;71.40;;;;;;6061278;28;89161;-68
2023/03/21 16:13:02;;;;;;;1.38;1.27;;;23.90;71.50;;;;;;6070789;28;89032;-68